sensor_id;sensor_type;location;lat;lon;timestamp;temperature;humidity
53272;DHT22;39160;48.580;7.756;2023-03-01T00:04:40;2.20;95.00
53272;DHT22;39160;48.580;7.756;2023-03-01T00:09:31;2.20;95.10
53272;DHT22;39160;48.580;7.756;2023-03-01T00:14:22;2.10;95.20
53272;DHT22;39160;48.580;7.756;2023-03-01T00:19:16;2.10;95.20
53272;DHT22;39160;48.580;7.756;2023-03-01T00:24:08;2.10;95.50
53272;DHT22;39160;48.580;7.756;2023-03-01T00:28:59;2.00;95.50
53272;DHT22;39160;48.580;7.756;2023-03-01T00:33:58;2.00;95.60
53272;DHT22;39160;48.580;7.756;2023-03-01T00:38:49;1.90;95.70
53272;DHT22;39160;48.580;7.756;2023-03-01T00:43:41;1.90;95.90
53272;DHT22;39160;48.580;7.756;2023-03-01T00:48:32;1.80;95.90
53272;DHT22;39160;48.580;7.756;2023-03-01T00:53:22;1.80;96.10
53272;DHT22;39160;48.580;7.756;2023-03-01T00:58:13;1.70;96.10
53272;DHT22;39160;48.580;7.756;2023-03-01T01:03:03;1.70;96.30
53272;DHT22;39160;48.580;7.756;2023-03-01T01:07:54;1.60;96.70
53272;DHT22;39160;48.580;7.756;2023-03-01T01:12:45;1.60;96.50
53272;DHT22;39160;48.580;7.756;2023-03-01T01:17:36;1.60;96.60
53272;DHT22;39160;48.580;7.756;2023-03-01T01:22:27;1.60;96.70
53272;DHT22;39160;48.580;7.756;2023-03-01T01:27:17;1.50;96.70
53272;DHT22;39160;48.580;7.756;2023-03-01T01:32:08;1.50;96.80
53272;DHT22;39160;48.580;7.756;2023-03-01T01:36:59;1.50;96.80
53272;DHT22;39160;48.580;7.756;2023-03-01T01:41:53;1.40;97.00
53272;DHT22;39160;48.580;7.756;2023-03-01T01:47:14;1.50;96.90
53272;DHT22;39160;48.580;7.756;2023-03-01T01:52:11;1.40;97.20
53272;DHT22;39160;48.580;7.756;2023-03-01T01:57:09;1.30;97.30
53272;DHT22;39160;48.580;7.756;2023-03-01T02:02:02;1.30;97.40
53272;DHT22;39160;48.580;7.756;2023-03-01T02:07:07;1.30;97.40
53272;DHT22;39160;48.580;7.756;2023-03-01T02:12:00;1.30;97.40
53272;DHT22;39160;48.580;7.756;2023-03-01T02:16:51;1.30;97.60
53272;DHT22;39160;48.580;7.756;2023-03-01T02:22:23;1.20;97.80
53272;DHT22;39160;48.580;7.756;2023-03-01T02:27:05;1.20;97.90
53272;DHT22;39160;48.580;7.756;2023-03-01T02:31:58;1.20;97.90
53272;DHT22;39160;48.580;7.756;2023-03-01T02:36:53;1.10;98.20
53272;DHT22;39160;48.580;7.756;2023-03-01T02:41:49;1.00;98.40
53272;DHT22;39160;48.580;7.756;2023-03-01T02:46:51;1.00;98.40
53272;DHT22;39160;48.580;7.756;2023-03-01T02:51:52;1.00;98.50
53272;DHT22;39160;48.580;7.756;2023-03-01T02:56:45;1.10;98.60
53272;DHT22;39160;48.580;7.756;2023-03-01T03:01:39;1.00;98.80
53272;DHT22;39160;48.580;7.756;2023-03-01T03:06:29;1.00;98.80
53272;DHT22;39160;48.580;7.756;2023-03-01T03:11:20;0.90;98.90
53272;DHT22;39160;48.580;7.756;2023-03-01T03:16:11;0.90;99.10
53272;DHT22;39160;48.580;7.756;2023-03-01T03:21:01;0.90;99.20
53272;DHT22;39160;48.580;7.756;2023-03-01T03:25:52;0.80;99.30
53272;DHT22;39160;48.580;7.756;2023-03-01T03:30:44;0.80;99.50
53272;DHT22;39160;48.580;7.756;2023-03-01T03:35:44;0.80;99.50
53272;DHT22;39160;48.580;7.756;2023-03-01T03:40:40;0.80;99.50
53272;DHT22;39160;48.580;7.756;2023-03-01T03:45:31;0.80;99.70
53272;DHT22;39160;48.580;7.756;2023-03-01T03:50:23;0.80;99.70
53272;DHT22;39160;48.580;7.756;2023-03-01T03:55:14;0.70;99.90
53272;DHT22;39160;48.580;7.756;2023-03-01T04:00:11;0.70;99.80
53272;DHT22;39160;48.580;7.756;2023-03-01T04:05:06;0.70;99.70
53272;DHT22;39160;48.580;7.756;2023-03-01T04:09:58;0.70;99.80
53272;DHT22;39160;48.580;7.756;2023-03-01T04:14:49;0.70;99.90
53272;DHT22;39160;48.580;7.756;2023-03-01T04:19:39;0.70;99.90
53272;DHT22;39160;48.580;7.756;2023-03-01T04:24:30;0.60;99.90
53272;DHT22;39160;48.580;7.756;2023-03-01T04:29:21;0.60;99.90
53272;DHT22;39160;48.580;7.756;2023-03-01T04:34:11;0.60;99.90
53272;DHT22;39160;48.580;7.756;2023-03-01T04:39:04;0.60;99.90
53272;DHT22;39160;48.580;7.756;2023-03-01T04:44:02;0.60;99.90
53272;DHT22;39160;48.580;7.756;2023-03-01T04:48:53;0.50;99.90
53272;DHT22;39160;48.580;7.756;2023-03-01T04:53:44;0.50;99.90
53272;DHT22;39160;48.580;7.756;2023-03-01T04:58:35;0.40;99.90
53272;DHT22;39160;48.580;7.756;2023-03-01T05:03:25;0.40;99.90
53272;DHT22;39160;48.580;7.756;2023-03-01T05:08:16;0.40;99.90
53272;DHT22;39160;48.580;7.756;2023-03-01T05:13:11;0.40;99.90
53272;DHT22;39160;48.580;7.756;2023-03-01T05:18:03;0.40;99.90
53272;DHT22;39160;48.580;7.756;2023-03-01T05:22:59;0.40;99.90
53272;DHT22;39160;48.580;7.756;2023-03-01T05:27:50;0.30;99.90
53272;DHT22;39160;48.580;7.756;2023-03-01T05:32:49;0.30;99.90
53272;DHT22;39160;48.580;7.756;2023-03-01T05:37:47;0.30;99.90
53272;DHT22;39160;48.580;7.756;2023-03-01T05:42:39;0.20;99.90
53272;DHT22;39160;48.580;7.756;2023-03-01T05:47:29;0.20;99.90
53272;DHT22;39160;48.580;7.756;2023-03-01T05:52:22;0.20;99.90
53272;DHT22;39160;48.580;7.756;2023-03-01T05:57:12;0.20;99.90
53272;DHT22;39160;48.580;7.756;2023-03-01T06:02:03;0.10;99.90
53272;DHT22;39160;48.580;7.756;2023-03-01T06:06:53;0.10;99.90
53272;DHT22;39160;48.580;7.756;2023-03-01T06:11:44;0.10;99.90
53272;DHT22;39160;48.580;7.756;2023-03-01T06:16:35;0.10;99.90
53272;DHT22;39160;48.580;7.756;2023-03-01T06:21:26;0.10;99.90
53272;DHT22;39160;48.580;7.756;2023-03-01T06:26:16;0.10;99.90
53272;DHT22;39160;48.580;7.756;2023-03-01T06:31:07;0.10;99.90
53272;DHT22;39160;48.580;7.756;2023-03-01T06:35:59;0.10;99.90
53272;DHT22;39160;48.580;7.756;2023-03-01T06:40:54;0.10;99.90
53272;DHT22;39160;48.580;7.756;2023-03-01T06:45:45;0.10;99.90
53272;DHT22;39160;48.580;7.756;2023-03-01T06:50:36;0.20;99.90
53272;DHT22;39160;48.580;7.756;2023-03-01T06:55:28;0.20;99.90
53272;DHT22;39160;48.580;7.756;2023-03-01T07:00:19;0.20;99.90
53272;DHT22;39160;48.580;7.756;2023-03-01T07:05:10;0.20;99.90
53272;DHT22;39160;48.580;7.756;2023-03-01T07:10:01;0.30;99.90
53272;DHT22;39160;48.580;7.756;2023-03-01T07:14:52;0.30;99.90
53272;DHT22;39160;48.580;7.756;2023-03-01T07:19:42;0.40;99.90
53272;DHT22;39160;48.580;7.756;2023-03-01T07:24:34;0.40;99.90
53272;DHT22;39160;48.580;7.756;2023-03-01T07:29:24;0.40;99.90
53272;DHT22;39160;48.580;7.756;2023-03-01T07:34:15;0.50;99.90
53272;DHT22;39160;48.580;7.756;2023-03-01T07:39:06;0.60;99.90
53272;DHT22;39160;48.580;7.756;2023-03-01T07:43:56;0.70;99.90
53272;DHT22;39160;48.580;7.756;2023-03-01T07:48:47;0.80;99.90
53272;DHT22;39160;48.580;7.756;2023-03-01T07:53:38;0.80;99.90
53272;DHT22;39160;48.580;7.756;2023-03-01T07:58:28;0.80;99.90
53272;DHT22;39160;48.580;7.756;2023-03-01T08:03:19;0.80;99.90
53272;DHT22;39160;48.580;7.756;2023-03-01T08:08:10;0.90;99.90
53272;DHT22;39160;48.580;7.756;2023-03-01T08:13:00;1.00;99.90
53272;DHT22;39160;48.580;7.756;2023-03-01T08:17:51;1.10;99.90
53272;DHT22;39160;48.580;7.756;2023-03-01T08:22:41;1.20;99.90
53272;DHT22;39160;48.580;7.756;2023-03-01T08:27:32;1.50;99.90
53272;DHT22;39160;48.580;7.756;2023-03-01T08:32:23;1.60;99.90
53272;DHT22;39160;48.580;7.756;2023-03-01T08:37:13;1.70;99.90
53272;DHT22;39160;48.580;7.756;2023-03-01T08:42:04;1.80;99.90
53272;DHT22;39160;48.580;7.756;2023-03-01T08:46:55;1.80;99.90
53272;DHT22;39160;48.580;7.756;2023-03-01T08:51:46;2.00;99.90
53272;DHT22;39160;48.580;7.756;2023-03-01T08:56:38;2.00;99.90
53272;DHT22;39160;48.580;7.756;2023-03-01T09:01:29;2.10;99.90
53272;DHT22;39160;48.580;7.756;2023-03-01T09:06:19;2.40;99.90
53272;DHT22;39160;48.580;7.756;2023-03-01T09:11:14;2.60;99.90
53272;DHT22;39160;48.580;7.756;2023-03-01T09:16:07;2.60;99.90
53272;DHT22;39160;48.580;7.756;2023-03-01T09:21:06;2.70;99.90
53272;DHT22;39160;48.580;7.756;2023-03-01T09:25:58;2.70;99.90
53272;DHT22;39160;48.580;7.756;2023-03-01T09:30:49;2.80;99.90
53272;DHT22;39160;48.580;7.756;2023-03-01T09:35:40;2.90;99.90
53272;DHT22;39160;48.580;7.756;2023-03-01T09:40:36;3.10;99.90
53272;DHT22;39160;48.580;7.756;2023-03-01T09:45:38;3.20;99.90
53272;DHT22;39160;48.580;7.756;2023-03-01T09:50:40;3.20;99.90
53272;DHT22;39160;48.580;7.756;2023-03-01T09:55:44;3.40;99.90
53272;DHT22;39160;48.580;7.756;2023-03-01T10:00:43;3.50;99.90
53272;DHT22;39160;48.580;7.756;2023-03-01T10:05:36;3.70;99.90
53272;DHT22;39160;48.580;7.756;2023-03-01T10:10:40;3.80;99.90
53272;DHT22;39160;48.580;7.756;2023-03-01T10:15:44;3.80;99.90
53272;DHT22;39160;48.580;7.756;2023-03-01T10:20:56;3.80;99.90
53272;DHT22;39160;48.580;7.756;2023-03-01T10:26:08;4.00;99.90
53272;DHT22;39160;48.580;7.756;2023-03-01T10:31:03;4.10;99.90
53272;DHT22;39160;48.580;7.756;2023-03-01T10:35:54;4.20;99.90
53272;DHT22;39160;48.580;7.756;2023-03-01T10:45:47;4.50;99.90
53272;DHT22;39160;48.580;7.756;2023-03-01T10:50:39;4.60;99.90
53272;DHT22;39160;48.580;7.756;2023-03-01T10:55:35;4.70;99.80
53272;DHT22;39160;48.580;7.756;2023-03-01T11:00:28;4.80;99.80
53272;DHT22;39160;48.580;7.756;2023-03-01T11:05:22;4.80;99.90
53272;DHT22;39160;48.580;7.756;2023-03-01T11:10:29;4.90;99.50
53272;DHT22;39160;48.580;7.756;2023-03-01T11:15:27;4.90;99.40
53272;DHT22;39160;48.580;7.756;2023-03-01T11:20:29;5.10;99.30
53272;DHT22;39160;48.580;7.756;2023-03-01T11:26:09;5.20;99.30
53272;DHT22;39160;48.580;7.756;2023-03-01T11:46:11;5.50;98.60
53272;DHT22;39160;48.580;7.756;2023-03-01T11:51:20;5.60;98.50
53272;DHT22;39160;48.580;7.756;2023-03-01T11:56:29;5.80;98.30
53272;DHT22;39160;48.580;7.756;2023-03-01T12:01:30;6.00;98.20
53272;DHT22;39160;48.580;7.756;2023-03-01T12:21:42;6.40;97.60
53272;DHT22;39160;48.580;7.756;2023-03-01T12:27:14;6.40;97.40
53272;DHT22;39160;48.580;7.756;2023-03-01T12:47:49;7.30;96.90
53272;DHT22;39160;48.580;7.756;2023-03-01T12:52:49;7.40;96.90
53272;DHT22;39160;48.580;7.756;2023-03-01T12:57:48;7.60;96.70
53272;DHT22;39160;48.580;7.756;2023-03-01T13:02:58;7.70;96.40
53272;DHT22;39160;48.580;7.756;2023-03-01T13:08:05;7.90;96.40
53272;DHT22;39160;48.580;7.756;2023-03-01T13:13:12;8.20;96.30
53272;DHT22;39160;48.580;7.756;2023-03-01T13:43:33;9.50;95.50
53272;DHT22;39160;48.580;7.756;2023-03-01T13:48:28;9.90;96.20
53272;DHT22;39160;48.580;7.756;2023-03-01T13:53:22;10.10;95.80
53272;DHT22;39160;48.580;7.756;2023-03-01T13:58:31;10.60;96.10
53272;DHT22;39160;48.580;7.756;2023-03-01T14:03:23;11.00;96.00
53272;DHT22;39160;48.580;7.756;2023-03-01T14:08:23;10.90;94.80
53272;DHT22;39160;48.580;7.756;2023-03-01T14:18:47;11.40;93.60
53272;DHT22;39160;48.580;7.756;2023-03-01T14:23:43;12.10;93.20
53272;DHT22;39160;48.580;7.756;2023-03-01T14:28:36;12.30;92.60
53272;DHT22;39160;48.580;7.756;2023-03-01T14:33:33;12.70;91.60
53272;DHT22;39160;48.580;7.756;2023-03-01T14:38:39;13.70;91.30
53272;DHT22;39160;48.580;7.756;2023-03-01T14:43:30;14.70;89.00
53272;DHT22;39160;48.580;7.756;2023-03-01T14:48:22;14.80;86.30
53272;DHT22;39160;48.580;7.756;2023-03-01T14:53:20;15.90;85.20
53272;DHT22;39160;48.580;7.756;2023-03-01T14:58:14;16.20;82.50
53272;DHT22;39160;48.580;7.756;2023-03-01T15:03:10;16.00;81.70
53272;DHT22;39160;48.580;7.756;2023-03-01T15:08:04;15.90;79.40
53272;DHT22;39160;48.580;7.756;2023-03-01T15:12:55;15.70;78.00
53272;DHT22;39160;48.580;7.756;2023-03-01T15:17:53;15.70;76.70
53272;DHT22;39160;48.580;7.756;2023-03-01T15:22:47;15.60;75.60
53272;DHT22;39160;48.580;7.756;2023-03-01T15:27:45;15.80;75.20
53272;DHT22;39160;48.580;7.756;2023-03-01T15:32:36;16.30;74.70
53272;DHT22;39160;48.580;7.756;2023-03-01T15:37:40;16.20;73.80
53272;DHT22;39160;48.580;7.756;2023-03-01T15:47:27;16.20;73.10
53272;DHT22;39160;48.580;7.756;2023-03-01T15:52:23;15.90;72.30
53272;DHT22;39160;48.580;7.756;2023-03-01T15:57:19;14.80;71.80
53272;DHT22;39160;48.580;7.756;2023-03-01T16:02:11;14.60;71.90
53272;DHT22;39160;48.580;7.756;2023-03-01T16:07:06;14.80;71.70
53272;DHT22;39160;48.580;7.756;2023-03-01T16:11:57;14.60;71.60
53272;DHT22;39160;48.580;7.756;2023-03-01T16:16:47;14.40;71.70
53272;DHT22;39160;48.580;7.756;2023-03-01T16:21:38;14.00;71.50
53272;DHT22;39160;48.580;7.756;2023-03-01T16:26:29;13.20;72.30
53272;DHT22;39160;48.580;7.756;2023-03-01T16:31:20;12.20;72.70
53272;DHT22;39160;48.580;7.756;2023-03-01T16:36:11;10.00;75.40
53272;DHT22;39160;48.580;7.756;2023-03-01T16:41:02;9.10;77.20
53272;DHT22;39160;48.580;7.756;2023-03-01T16:45:53;8.60;77.90
53272;DHT22;39160;48.580;7.756;2023-03-01T16:50:43;8.50;78.00
53272;DHT22;39160;48.580;7.756;2023-03-01T16:55:34;8.30;78.30
53272;DHT22;39160;48.580;7.756;2023-03-01T17:00:25;8.20;78.70
53272;DHT22;39160;48.580;7.756;2023-03-01T17:05:16;8.00;79.50
53272;DHT22;39160;48.580;7.756;2023-03-01T17:10:09;7.90;80.20
53272;DHT22;39160;48.580;7.756;2023-03-01T17:15:00;7.80;80.60
53272;DHT22;39160;48.580;7.756;2023-03-01T17:19:51;7.70;81.10
53272;DHT22;39160;48.580;7.756;2023-03-01T17:24:42;7.70;81.60
53272;DHT22;39160;48.580;7.756;2023-03-01T17:29:34;7.60;81.60
53272;DHT22;39160;48.580;7.756;2023-03-01T17:34:25;7.50;82.00
53272;DHT22;39160;48.580;7.756;2023-03-01T17:39:16;7.50;82.40
53272;DHT22;39160;48.580;7.756;2023-03-01T17:44:07;7.40;82.50
53272;DHT22;39160;48.580;7.756;2023-03-01T17:48:58;7.40;82.90
53272;DHT22;39160;48.580;7.756;2023-03-01T17:53:49;7.30;83.10
53272;DHT22;39160;48.580;7.756;2023-03-01T17:58:39;7.30;83.30
53272;DHT22;39160;48.580;7.756;2023-03-01T18:03:30;7.30;83.50
53272;DHT22;39160;48.580;7.756;2023-03-01T18:08:21;7.30;83.90
53272;DHT22;39160;48.580;7.756;2023-03-01T18:13:12;7.20;84.00
53272;DHT22;39160;48.580;7.756;2023-03-01T18:18:04;7.20;84.30
53272;DHT22;39160;48.580;7.756;2023-03-01T18:22:54;7.10;84.60
53272;DHT22;39160;48.580;7.756;2023-03-01T18:27:45;7.10;85.10
53272;DHT22;39160;48.580;7.756;2023-03-01T18:32:36;7.00;85.30
53272;DHT22;39160;48.580;7.756;2023-03-01T18:37:28;7.00;85.50
53272;DHT22;39160;48.580;7.756;2023-03-01T18:42:19;6.90;85.70
53272;DHT22;39160;48.580;7.756;2023-03-01T18:47:10;6.90;86.00
53272;DHT22;39160;48.580;7.756;2023-03-01T18:52:01;6.80;86.10
53272;DHT22;39160;48.580;7.756;2023-03-01T18:56:52;6.80;86.40
53272;DHT22;39160;48.580;7.756;2023-03-01T19:01:42;6.80;86.60
53272;DHT22;39160;48.580;7.756;2023-03-01T19:06:33;6.70;86.80
53272;DHT22;39160;48.580;7.756;2023-03-01T19:11:24;6.70;86.90
53272;DHT22;39160;48.580;7.756;2023-03-01T19:16:19;6.70;87.10
53272;DHT22;39160;48.580;7.756;2023-03-01T19:21:10;6.70;87.20
53272;DHT22;39160;48.580;7.756;2023-03-01T19:26:04;6.60;87.10
53272;DHT22;39160;48.580;7.756;2023-03-01T19:31:00;6.60;87.40
53272;DHT22;39160;48.580;7.756;2023-03-01T19:35:52;6.60;87.40
53272;DHT22;39160;48.580;7.756;2023-03-01T19:40:42;6.50;87.80
53272;DHT22;39160;48.580;7.756;2023-03-01T19:45:37;6.40;88.20
53272;DHT22;39160;48.580;7.756;2023-03-01T19:50:30;6.40;88.40
53272;DHT22;39160;48.580;7.756;2023-03-01T19:55:21;6.40;88.40
53272;DHT22;39160;48.580;7.756;2023-03-01T20:00:12;6.40;88.50
53272;DHT22;39160;48.580;7.756;2023-03-01T20:05:03;6.30;88.70
53272;DHT22;39160;48.580;7.756;2023-03-01T20:09:54;6.30;88.90
53272;DHT22;39160;48.580;7.756;2023-03-01T20:14:45;6.30;89.10
53272;DHT22;39160;48.580;7.756;2023-03-01T20:19:38;6.20;89.10
53272;DHT22;39160;48.580;7.756;2023-03-01T20:24:28;6.10;89.20
53272;DHT22;39160;48.580;7.756;2023-03-01T20:29:21;6.10;89.30
53272;DHT22;39160;48.580;7.756;2023-03-01T20:34:11;6.10;89.50
53272;DHT22;39160;48.580;7.756;2023-03-01T20:39:02;6.10;89.60
53272;DHT22;39160;48.580;7.756;2023-03-01T20:43:53;6.10;89.80
53272;DHT22;39160;48.580;7.756;2023-03-01T20:48:45;6.00;90.00
53272;DHT22;39160;48.580;7.756;2023-03-01T20:53:36;5.90;90.10
53272;DHT22;39160;48.580;7.756;2023-03-01T20:58:28;5.90;90.10
53272;DHT22;39160;48.580;7.756;2023-03-01T21:03:22;5.90;90.10
53272;DHT22;39160;48.580;7.756;2023-03-01T21:08:12;5.80;90.10
53272;DHT22;39160;48.580;7.756;2023-03-01T21:13:03;5.60;90.10
53272;DHT22;39160;48.580;7.756;2023-03-01T21:17:54;5.40;90.20
53272;DHT22;39160;48.580;7.756;2023-03-01T21:22:45;5.30;90.30
53272;DHT22;39160;48.580;7.756;2023-03-01T21:27:36;5.30;90.40
53272;DHT22;39160;48.580;7.756;2023-03-01T21:32:27;5.20;90.50
53272;DHT22;39160;48.580;7.756;2023-03-01T21:37:18;5.20;90.50
53272;DHT22;39160;48.580;7.756;2023-03-01T21:42:11;5.10;90.80
53272;DHT22;39160;48.580;7.756;2023-03-01T21:47:03;5.10;91.00
53272;DHT22;39160;48.580;7.756;2023-03-01T21:51:54;5.00;91.20
53272;DHT22;39160;48.580;7.756;2023-03-01T21:56:46;5.00;91.20
53272;DHT22;39160;48.580;7.756;2023-03-01T22:01:37;5.00;91.40
53272;DHT22;39160;48.580;7.756;2023-03-01T22:06:31;4.90;91.50
53272;DHT22;39160;48.580;7.756;2023-03-01T22:11:24;4.90;91.70
53272;DHT22;39160;48.580;7.756;2023-03-01T22:16:17;4.90;91.90
53272;DHT22;39160;48.580;7.756;2023-03-01T22:21:08;4.80;92.10
53272;DHT22;39160;48.580;7.756;2023-03-01T22:26:00;4.80;92.10
53272;DHT22;39160;48.580;7.756;2023-03-01T22:30:51;4.70;92.20
53272;DHT22;39160;48.580;7.756;2023-03-01T22:35:42;4.70;92.40
53272;DHT22;39160;48.580;7.756;2023-03-01T22:40:33;4.70;92.50
53272;DHT22;39160;48.580;7.756;2023-03-01T22:45:23;4.70;92.60
53272;DHT22;39160;48.580;7.756;2023-03-01T22:50:14;4.70;92.60
53272;DHT22;39160;48.580;7.756;2023-03-01T22:55:06;4.60;92.80
53272;DHT22;39160;48.580;7.756;2023-03-01T22:59:57;4.60;92.90
53272;DHT22;39160;48.580;7.756;2023-03-01T23:04:47;4.50;92.90
53272;DHT22;39160;48.580;7.756;2023-03-01T23:09:38;4.60;92.90
53272;DHT22;39160;48.580;7.756;2023-03-01T23:14:31;4.50;93.10
53272;DHT22;39160;48.580;7.756;2023-03-01T23:19:22;4.50;93.20
53272;DHT22;39160;48.580;7.756;2023-03-01T23:24:13;4.50;93.40
53272;DHT22;39160;48.580;7.756;2023-03-01T23:29:04;4.40;93.60
53272;DHT22;39160;48.580;7.756;2023-03-01T23:33:55;4.40;93.50
53272;DHT22;39160;48.580;7.756;2023-03-01T23:38:47;4.30;93.70
53272;DHT22;39160;48.580;7.756;2023-03-01T23:43:38;4.30;93.80
53272;DHT22;39160;48.580;7.756;2023-03-01T23:48:29;4.20;94.10
53272;DHT22;39160;48.580;7.756;2023-03-01T23:53:19;4.20;94.20
53272;DHT22;39160;48.580;7.756;2023-03-01T23:58:10;4.20;94.40
